Time;durP1;ratioP1;P1;durP2;ratioP2;P2;SDS_P1;SDS_P2;PMS_P1;PMS_P2;Temp;Humidity;BMP_temperature;BMP_pressure;BME280_temperature;BME280_humidity;BME280_pressure;Samples;Min_cycle;Max_cycle;Signal;HPM_P1;HPM_P2
2023/06/12 00:01:55;;;;;;;;;;;;;;;23.82;50.24;101076.19;4112962;28;20545;-58
2023/06/12 00:03:57;;;;;;;;;;;;;;;23.92;50.14;101095.06;4112544;28;19930;-57
2023/06/12 00:05:59;;;;;;;;;;;;;;;23.93;50.06;101088.72;4112843;28;20312;-58
2023/06/12 00:08:01;;;;;;;;;;;;;;;23.92;49.90;101085.19;4113047;28;20188;-57
2023/06/12 00:10:03;;;;;;;;;;;;;;;23.92;50.15;101092.38;4111890;28;19926;-58
2023/06/12 00:12:05;;;;;;;;;;;;;;;23.92;50.12;101087.00;4112902;28;19927;-56
2023/06/12 00:14:06;;;;;;;;;;;;;;;23.91;49.91;101080.78;4112517;28;20017;-57
2023/06/12 00:16:08;;;;;;;;;;;;;;;23.91;50.03;101086.16;4112604;28;19926;-56
2023/06/12 00:18:11;;;;;;;;;;;;;;;23.90;50.01;101081.75;4112519;28;19935;-58
2023/06/12 00:20:12;;;;;;;;;;;;;;;23.91;50.11;101085.28;4111534;28;19926;-58
2023/06/12 00:22:14;;;;;;;;;;;;;;;23.90;49.98;101080.91;4112810;28;19933;-58
2023/06/12 00:24:16;;;;;;;;;;;;;;;23.88;50.43;101081.03;4112783;28;19926;-58
2023/06/12 00:26:18;;;;;;;;;;;;;;;23.89;50.23;101079.19;4112424;28;19926;-58
2023/06/12 00:28:19;;;;;;;;;;;;;;;23.87;50.05;101079.31;4143490;28;19926;-57
2023/06/12 00:30:21;;;;;;;;;;;;;;;23.88;49.96;101077.50;4111326;28;19937;-58
2023/06/12 00:32:22;;;;;;;;;;;;;;;23.87;50.19;101079.31;4112179;28;19930;-58
2023/06/12 00:34:24;;;;;;;;;;;;;;;23.86;50.13;101074.09;4112414;28;20391;-58
2023/06/12 00:36:26;;;;;;;;;;;;;;;23.86;50.31;101074.09;4112685;28;19936;-58
2023/06/12 00:38:28;;;;;;;;;;;;;;;23.86;50.10;101076.78;4112524;28;19957;-57
2023/06/12 00:40:29;;;;;;;;;;;;;;;23.86;50.12;101066.03;4111585;28;19937;-58
2023/06/12 00:43:00;;;;;;;;;;;;;;;23.85;50.08;101072.38;4112936;28;20025;-57
2023/06/12 00:45:02;;;;;;;;;;;;;;;23.84;50.43;101062.63;4104224;28;19926;-58
2023/06/12 00:47:04;;;;;;;;;;;;;;;23.83;50.30;101066.28;4112111;28;19926;-58
2023/06/12 00:49:05;;;;;;;;;;;;;;;23.82;50.19;101064.63;4111545;28;19995;-58
2023/06/12 00:51:10;;;;;;;;;;;;;;;23.83;50.25;101066.28;4112364;28;19934;-58
2023/06/12 00:53:12;;;;;;;;;;;;;;;23.81;50.28;101066.44;4112319;28;19936;-57
2023/06/12 00:55:14;;;;;;;;;;;;;;;23.81;50.34;101066.44;4112415;28;20303;-57
2023/06/12 00:57:16;;;;;;;;;;;;;;;23.80;50.16;101061.19;4112467;28;19926;-57
2023/06/12 00:59:17;;;;;;;;;;;;;;;23.80;50.29;101067.41;4112958;28;20546;-57
2023/06/12 01:01:25;;;;;;;;;;;;;;;23.79;50.27;101064.88;4114691;28;20261;-57
2023/06/12 01:03:26;;;;;;;;;;;;;;;23.79;50.24;101076.44;4115165;28;19961;-58
2023/06/12 01:05:34;;;;;;;;;;;;;;;23.79;50.34;101064.88;4115290;28;19927;-58
2023/06/12 01:07:48;;;;;;;;;;;;;;;23.77;50.09;101073.06;4114993;28;19926;-57
2023/06/12 01:09:55;;;;;;;;;;;;;;;23.78;50.04;101080.16;4113942;28;20026;-55
2023/06/12 01:11:58;;;;;;;;;;;;;;;23.77;49.98;101078.44;4114774;28;19934;-56
2023/06/12 01:14:01;;;;;;;;;;;;;;;23.75;50.12;101065.13;4114979;28;20422;-56
2023/06/12 01:16:02;;;;;;;;;;;;;;;23.75;50.28;101058.91;4114561;28;19945;-56
2023/06/12 01:18:06;;;;;;;;;;;;;;;23.74;50.17;101067.94;4114957;28;19953;-57
2023/06/12 01:20:13;;;;;;;;;;;;;;;23.75;50.08;101069.66;4113570;28;20021;-55
2023/06/12 01:22:16;;;;;;;;;;;;;;;23.73;50.25;101067.09;4115010;28;19926;-57
2023/06/12 01:24:28;;;;;;;;;;;;;;;23.73;50.08;101064.41;4114946;28;19926;-57
2023/06/12 01:26:45;;;;;;;;;;;;;;;23.73;50.07;101056.38;4114472;28;19974;-57
2023/06/12 01:28:59;;;;;;;;;;;;;;;23.73;50.40;101050.13;4114265;28;20004;-59
2023/06/12 01:31:08;;;;;;;;;;;;;;;23.73;50.33;101052.81;4114241;28;19934;-58
2023/06/12 01:33:13;;;;;;;;;;;;;;;23.71;50.27;101044.91;4114860;28;20025;-56
2023/06/12 01:35:22;;;;;;;;;;;;;;;23.72;50.28;101051.09;4113633;28;19926;-56
2023/06/12 01:37:34;;;;;;;;;;;;;;;23.70;49.89;101045.88;4114706;28;19926;-57
2023/06/12 01:39:39;;;;;;;;;;;;;;;23.69;50.05;101044.16;4113438;28;19933;-57
2023/06/12 01:41:41;;;;;;;;;;;;;;;23.69;50.47;101046.84;4114631;28;20410;-56
2023/06/12 01:43:43;;;;;;;;;;;;;;;23.68;50.13;101042.50;4114829;28;19935;-56
2023/06/12 01:45:44;;;;;;;;;;;;;;;23.68;50.08;101047.00;4114276;28;19926;-55
2023/06/12 01:47:46;;;;;;;;;;;;;;;23.69;50.18;101049.53;4114354;28;19926;-57
2023/06/12 01:49:48;;;;;;;;;;;;;;;23.69;50.16;101048.69;4113649;28;19927;-57
2023/06/12 01:51:49;;;;;;;;;;;;;;;23.67;50.10;101054.22;4114267;28;19930;-56
2023/06/12 01:53:51;;;;;;;;;;;;;;;23.67;50.49;101058.72;4114432;28;19937;-57
2023/06/12 01:55:53;;;;;;;;;;;;;;;23.66;50.15;101057.00;4114480;28;19934;-57
2023/06/12 01:57:55;;;;;;;;;;;;;;;23.64;50.16;101059.81;4114366;28;19995;-57
2023/06/12 01:59:56;;;;;;;;;;;;;;;23.65;50.44;101058.00;4112947;28;20068;-57
2023/06/12 02:01:58;;;;;;;;;;;;;;;23.64;50.25;101062.50;4114430;28;19933;-57
2023/06/12 02:04:00;;;;;;;;;;;;;;;23.63;50.20;101052.75;4114170;28;20021;-56
2023/06/12 02:06:01;;;;;;;;;;;;;;;23.63;50.45;101062.66;4114348;28;20426;-57
2023/06/12 02:08:03;;;;;;;;;;;;;;;23.63;50.09;101068.03;4114215;28;19930;-57
2023/06/12 02:10:06;;;;;;;;;;;;;;;23.63;50.12;101059.97;4112890;28;19933;-58
2023/06/12 02:12:07;;;;;;;;;;;;;;;23.63;50.05;101065.34;4113998;28;19933;-57
2023/06/12 02:14:10;;;;;;;;;;;;;;;23.63;50.06;101062.66;4113996;28;19932;-57
2023/06/12 02:16:13;;;;;;;;;;;;;;;23.60;50.19;101059.25;4114154;28;20303;-57
2023/06/12 02:18:15;;;;;;;;;;;;;;;23.61;49.93;101060.09;4114265;28;19989;-57
2023/06/12 02:20:16;;;;;;;;;;;;;;;23.61;50.12;101054.75;4113163;28;19932;-57
2023/06/12 02:22:18;;;;;;;;;;;;;;;23.60;50.14;101056.56;4114215;28;20009;-58
2023/06/12 02:24:20;;;;;;;;;;;;;;;23.60;50.07;101063.78;4197125;28;20037;-56
2023/06/12 02:26:22;;;;;;;;;;;;;;;23.59;50.02;101070.97;4114021;28;19936;-57
2023/06/12 02:28:24;;;;;;;;;;;;;;;23.59;50.19;101076.31;4113609;28;19933;-57
2023/06/12 02:30:25;;;;;;;;;;;;;;;23.59;50.28;101081.69;4112722;28;19933;-57
2023/06/12 02:32:27;;;;;;;;;;;;;;;23.59;50.04;101081.69;4113988;28;19926;-58
2023/06/12 02:34:29;;;;;;;;;;;;;;;23.57;50.05;101086.38;4113986;28;20233;-57
2023/06/12 02:36:30;;;;;;;;;;;;;;;23.56;50.22;101087.34;4113729;28;20017;-57
2023/06/12 02:38:32;;;;;;;;;;;;;;;23.55;50.35;101082.94;4113329;28;19965;-57
2023/06/12 02:40:33;;;;;;;;;;;;;;;23.54;50.25;101086.63;4112601;28;19926;-57
2023/06/12 02:42:35;;;;;;;;;;;;;;;23.52;50.37;101080.50;4113405;28;19930;-57
2023/06/12 02:44:37;;;;;;;;;;;;;;;23.53;50.27;101082.22;4113896;28;19965;-56
2023/06/12 02:46:52;;;;;;;;;;;;;;;23.53;50.13;101081.38;4113750;28;19941;-57
2023/06/12 02:48:53;;;;;;;;;;;;;;;23.54;50.04;101080.41;4113680;28;19934;-57
2023/06/12 02:50:55;;;;;;;;;;;;;;;23.53;49.92;101079.53;4112766;28;19933;-56
2023/06/12 02:52:56;;;;;;;;;;;;;;;23.53;50.06;101070.66;4113861;28;19933;-56
2023/06/12 02:54:58;;;;;;;;;;;;;;;23.53;49.91;101070.66;4113572;28;20302;-55
2023/06/12 02:56:59;;;;;;;;;;;;;;;23.52;50.37;101066.25;4113082;28;19926;-56
2023/06/12 02:59:03;;;;;;;;;;;;;;;23.52;50.24;101060.88;4113440;28;20363;-56
2023/06/12 03:01:07;;;;;;;;;;;;;;;23.51;50.01;101061.88;4113041;28;20380;-57
2023/06/12 03:03:09;;;;;;;;;;;;;;;23.50;50.35;101063.72;4113637;28;20441;-56
2023/06/12 03:05:15;;;;;;;;;;;;;;;23.50;50.28;101066.41;4113696;28;19926;-57
2023/06/12 03:07:16;;;;;;;;;;;;;;;23.50;50.23;101062.84;4113450;28;19926;-57
2023/06/12 03:09:19;;;;;;;;;;;;;;;23.50;50.53;101062.84;4112854;28;19973;-56
2023/06/12 03:11:20;;;;;;;;;;;;;;;23.49;50.01;101063.81;4113166;28;19961;-57
2023/06/12 03:13:22;;;;;;;;;;;;;;;23.49;50.32;101061.13;4113011;28;19957;-57
2023/06/12 03:15:24;;;;;;;;;;;;;;;23.48;50.05;101052.25;4113247;28;19952;-58
2023/06/12 03:17:25;;;;;;;;;;;;;;;23.47;50.07;101058.59;4113506;28;19930;-57
2023/06/12 03:19:27;;;;;;;;;;;;;;;23.48;50.00;101054.94;4112693;28;19926;-57
2023/06/12 03:21:29;;;;;;;;;;;;;;;23.47;50.39;101066.63;4113052;28;19927;-57
2023/06/12 03:23:31;;;;;;;;;;;;;;;23.48;49.92;101067.50;4112406;28;19926;-56
2023/06/12 03:25:33;;;;;;;;;;;;;;;23.48;50.22;101070.19;4113380;28;19991;-57
2023/06/12 03:27:35;;;;;;;;;;;;;;;23.46;50.23;101067.63;4112639;28;19926;-57
2023/06/12 03:29:36;;;;;;;;;;;;;;;23.45;50.09;101068.59;4112296;28;19933;-56
2023/06/12 03:31:38;;;;;;;;;;;;;;;23.44;50.11;101065.06;4111947;28;20419;-57
2023/06/12 03:33:40;;;;;;;;;;;;;;;23.45;50.30;101071.28;4113216;28;19969;-57
2023/06/12 03:35:41;;;;;;;;;;;;;;;23.44;50.24;101069.59;4113426;28;19953;-57
2023/06/12 03:37:43;;;;;;;;;;;;;;;23.44;50.24;101074.97;4113493;28;19933;-57
2023/06/12 03:39:44;;;;;;;;;;;;;;;23.41;50.37;101070.69;4112000;28;19926;-57
2023/06/12 03:41:53;;;;;;;;;;;;;;;23.42;50.10;101072.38;4112779;28;19950;-57
2023/06/12 03:43:54;;;;;;;;;;;;;;;23.43;49.98;101074.09;4195952;28;19928;-57
2023/06/12 03:45:56;;;;;;;;;;;;;;;23.41;50.14;101078.75;4113062;28;20303;-57
2023/06/12 03:47:58;;;;;;;;;;;;;;;23.41;49.98;101073.38;4113118;28;20021;-56
2023/06/12 03:50:00;;;;;;;;;;;;;;;23.41;50.20;101080.59;4110978;28;20381;-56
2023/06/12 03:52:01;;;;;;;;;;;;;;;23.40;50.10;101076.19;4113107;28;20383;-56
2023/06/12 03:54:03;;;;;;;;;;;;;;;23.40;50.08;101081.56;4113009;28;19936;-56
2023/06/12 03:56:05;;;;;;;;;;;;;;;23.40;49.87;101076.19;4112541;28;20030;-56
2023/06/12 03:58:06;;;;;;;;;;;;;;;23.39;50.20;101078.03;4113103;28;20360;-56
2023/06/12 04:00:09;;;;;;;;;;;;;;;23.39;50.44;101077.16;4110851;28;19930;-56
2023/06/12 04:02:11;;;;;;;;;;;;;;;23.39;50.00;101075.34;4113033;28;19926;-57
2023/06/12 04:04:14;;;;;;;;;;;;;;;23.38;50.52;101060.22;4112828;28;19930;-57
2023/06/12 04:06:16;;;;;;;;;;;;;;;23.38;50.08;101065.59;4112847;28;20350;-56
2023/06/12 04:08:18;;;;;;;;;;;;;;;23.37;50.35;101071.94;4112800;28;19961;-57
2023/06/12 04:10:19;;;;;;;;;;;;;;;23.37;50.16;101071.94;4111579;28;20370;-57
2023/06/12 04:12:21;;;;;;;;;;;;;;;23.37;50.00;101071.09;4112771;28;20451;-56
2023/06/12 04:14:22;;;;;;;;;;;;;;;23.37;50.09;101069.25;4112807;28;20375;-57
2023/06/12 04:16:24;;;;;;;;;;;;;;;23.36;50.31;101066.72;4112690;28;19930;-57
2023/06/12 04:18:26;;;;;;;;;;;;;;;23.36;50.15;101067.53;4112647;28;20331;-56
2023/06/12 04:20:29;;;;;;;;;;;;;;;23.36;49.97;101069.41;4111565;28;19926;-57
2023/06/12 04:22:31;;;;;;;;;;;;;;;23.36;50.04;101069.41;4112772;28;19965;-56
2023/06/12 04:24:33;;;;;;;;;;;;;;;23.36;50.15;101072.06;4112265;28;19927;-54
2023/06/12 04:26:35;;;;;;;;;;;;;;;23.35;50.24;101067.69;4112368;28;19930;-56
2023/06/12 04:28:37;;;;;;;;;;;;;;;23.34;50.16;101055.25;4112545;28;19953;-57
2023/06/12 04:30:41;;;;;;;;;;;;;;;23.33;50.45;101061.59;4111361;28;19971;-57
2023/06/12 04:32:43;;;;;;;;;;;;;;;23.33;50.11;101058.91;4112307;28;19945;-57
2023/06/12 04:34:45;;;;;;;;;;;;;;;23.33;50.16;101061.59;4114725;28;19937;-56
2023/06/12 04:36:47;;;;;;;;;;;;;;;23.31;50.42;101053.66;4115332;28;19930;-56
2023/06/12 04:38:52;;;;;;;;;;;;;;;23.32;50.14;101055.38;4114927;28;19937;-55
2023/06/12 04:40:54;;;;;;;;;;;;;;;23.33;50.22;101057.09;4114233;28;19933;-56
2023/06/12 04:42:56;;;;;;;;;;;;;;;23.32;50.52;101057.19;4115516;28;19930;-57
2023/06/12 04:44:59;;;;;;;;;;;;;;;23.31;50.09;101059.03;4115260;28;19980;-56
2023/06/12 04:47:02;;;;;;;;;;;;;;;23.32;50.22;101060.75;4115149;28;20017;-56
2023/06/12 04:49:03;;;;;;;;;;;;;;;23.31;50.18;101060.84;4115179;28;19995;-57
2023/06/12 04:51:05;;;;;;;;;;;;;;;23.31;50.20;101058.16;4114081;28;19930;-56
2023/06/12 04:53:07;;;;;;;;;;;;;;;23.30;50.20;101068.06;4114976;28;19926;-57
2023/06/12 04:55:09;;;;;;;;;;;;;;;23.29;50.10;101058.31;4115141;28;19934;-56
2023/06/12 04:57:12;;;;;;;;;;;;;;;23.28;50.30;101064.66;4115264;28;19929;-57
2023/06/12 04:59:16;;;;;;;;;;;;;;;23.28;50.21;101067.34;4114960;28;19926;-56
2023/06/12 05:01:19;;;;;;;;;;;;;;;23.29;50.68;101071.72;4113880;28;19933;-57
2023/06/12 05:03:21;;;;;;;;;;;;;;;23.28;50.36;101070.03;4115102;28;19933;-57
2023/06/12 05:05:27;;;;;;;;;;;;;;;23.26;50.29;101069.31;4115190;28;20036;-56
2023/06/12 05:07:34;;;;;;;;;;;;;;;23.26;50.27;101072.00;4114790;28;20377;-57
2023/06/12 05:09:35;;;;;;;;;;;;;;;23.27;50.28;101071.03;4114683;28;20412;-57
2023/06/12 05:11:37;;;;;;;;;;;;;;;23.26;50.17;101072.84;4114095;28;20361;-56
2023/06/12 05:13:39;;;;;;;;;;;;;;;23.26;50.09;101070.16;4114730;28;20021;-56
2023/06/12 05:15:40;;;;;;;;;;;;;;;23.26;50.34;101072.00;4114729;28;19933;-57
2023/06/12 05:17:42;;;;;;;;;;;;;;;23.26;50.30;101072.00;4114957;28;19926;-57
2023/06/12 05:19:43;;;;;;;;;;;;;;;23.26;50.14;101066.63;4113945;28;19968;-57
2023/06/12 05:21:45;;;;;;;;;;;;;;;23.25;50.36;101079.19;4114454;28;19930;-57
2023/06/12 05:23:47;;;;;;;;;;;;;;;23.25;50.05;101073.81;4114466;28;19949;-56
2023/06/12 05:25:48;;;;;;;;;;;;;;;23.25;50.18;101075.66;4114632;28;19926;-57
2023/06/12 05:27:50;;;;;;;;;;;;;;;23.24;50.21;101074.78;4114746;28;20371;-56
2023/06/12 05:29:52;;;;;;;;;;;;;;;23.24;50.17;101071.28;4113923;28;19934;-57
2023/06/12 05:31:53;;;;;;;;;;;;;;;23.23;50.16;101070.44;4114622;28;19930;-56
2023/06/12 05:33:55;;;;;;;;;;;;;;;23.22;50.33;101079.47;4114561;28;19930;-57
2023/06/12 05:35:56;;;;;;;;;;;;;;;23.23;49.94;101070.44;4114367;28;19971;-56
2023/06/12 05:37:58;;;;;;;;;;;;;;;23.23;50.16;101064.19;4114114;28;19930;-57
2023/06/12 05:40:00;;;;;;;;;;;;;;;23.22;50.06;101063.34;4113767;28;19936;-56
2023/06/12 05:42:01;;;;;;;;;;;;;;;23.22;50.12;101068.72;4114428;28;19933;-57
2023/06/12 05:44:08;;;;;;;;;;;;;;;23.23;50.19;101066.88;4114526;28;19949;-57
2023/06/12 05:46:10;;;;;;;;;;;;;;;23.22;50.43;101071.41;4113751;28;19926;-57
2023/06/12 05:48:12;;;;;;;;;;;;;;;23.23;50.01;101069.56;4114650;28;19931;-57
2023/06/12 05:50:13;;;;;;;;;;;;;;;23.22;50.31;101084.81;4113750;28;20422;-57
2023/06/12 05:52:15;;;;;;;;;;;;;;;23.23;50.07;101072.25;4113925;28;19930;-57
2023/06/12 05:54:17;;;;;;;;;;;;;;;23.23;50.16;101077.63;4114272;28;20307;-56
2023/06/12 05:56:18;;;;;;;;;;;;;;;23.23;50.26;101074.94;4114338;28;20016;-56
2023/06/12 05:58:21;;;;;;;;;;;;;;;23.23;49.92;101082.97;4114426;28;20407;-56
2023/06/12 06:00:23;;;;;;;;;;;;;;;23.23;49.85;101085.66;4113653;28;19934;-57
2023/06/12 06:02:25;;;;;;;;;;;;;;;23.25;50.11;101083.72;4114422;28;19970;-56
2023/06/12 06:04:26;;;;;;;;;;;;;;;23.25;49.79;101078.34;4114216;28;19979;-57
2023/06/12 06:06:30;;;;;;;;;;;;;;;23.25;49.98;101079.19;4113959;28;20315;-57
2023/06/12 06:08:31;;;;;;;;;;;;;;;23.26;49.80;101074.69;4114394;28;19927;-56
2023/06/12 06:10:33;;;;;;;;;;;;;;;23.26;49.77;101082.75;4112076;28;19961;-56
2023/06/12 06:12:34;;;;;;;;;;;;;;;23.26;49.72;101080.88;4114289;28;19936;-56
2023/06/12 06:14:36;;;;;;;;;;;;;;;23.26;49.77;101080.06;4114048;28;20025;-57
2023/06/12 06:16:37;;;;;;;;;;;;;;;23.26;49.72;101077.38;4114102;28;20371;-58
2023/06/12 06:18:55;;;;;;;;;;;;;;;23.26;49.73;101088.94;4113888;28;20025;-56
2023/06/12 06:20:57;;;;;;;;;;;;;;;23.26;49.85;101088.09;4112774;28;19926;-57
2023/06/12 06:22:58;;;;;;;;;;;;;;;23.26;50.02;101091.63;4114088;28;19926;-57
2023/06/12 06:25:00;;;;;;;;;;;;;;;23.25;49.60;101095.28;4114007;28;20017;-58
2023/06/12 06:27:02;;;;;;;;;;;;;;;23.24;50.10;101088.22;4113987;28;19957;-57
2023/06/12 06:29:03;;;;;;;;;;;;;;;23.23;49.96;101086.53;4113727;28;20040;-57
2023/06/12 06:31:15;;;;;;;;;;;;;;;23.24;50.05;101093.56;4112967;28;19988;-55
2023/06/12 06:33:16;;;;;;;;;;;;;;;23.24;49.85;101092.75;4113928;28;19976;-56
2023/06/12 06:35:18;;;;;;;;;;;;;;;23.23;49.71;101097.25;4113562;28;19930;-57
2023/06/12 06:37:20;;;;;;;;;;;;;;;23.24;49.78;101098.09;4114017;28;19926;-58
2023/06/12 06:39:22;;;;;;;;;;;;;;;23.22;49.89;101097.38;4113777;28;19927;-58
2023/06/12 06:41:24;;;;;;;;;;;;;;;23.23;49.85;101093.72;4112781;28;20008;-57
2023/06/12 06:43:25;;;;;;;;;;;;;;;23.23;49.85;101096.41;4113995;28;19938;-57
2023/06/12 06:45:27;;;;;;;;;;;;;;;23.22;50.07;101097.38;4113666;28;20367;-57
2023/06/12 06:47:28;;;;;;;;;;;;;;;23.21;49.85;101092.97;4113760;28;19926;-57
2023/06/12 06:49:30;;;;;;;;;;;;;;;23.20;49.89;101084.09;4112229;28;19926;-57
2023/06/12 06:51:31;;;;;;;;;;;;;;;23.21;49.96;101087.59;4112640;28;20016;-57
2023/06/12 06:53:34;;;;;;;;;;;;;;;23.20;49.99;101091.31;4108371;28;19974;-57
2023/06/12 06:55:37;;;;;;;;;;;;;;;23.21;49.98;101087.59;4113412;28;19952;-57
2023/06/12 06:57:39;;;;;;;;;;;;;;;23.19;49.95;101093.13;4113041;28;19930;-56
2023/06/12 06:59:41;;;;;;;;;;;;;;;23.20;49.83;101084.09;4113467;28;19983;-56
2023/06/12 07:01:42;;;;;;;;;;;;;;;23.19;49.89;101082.38;4112666;28;19926;-57
2023/06/12 07:03:44;;;;;;;;;;;;;;;23.20;49.89;101077.88;4112845;28;19937;-57
2023/06/12 07:05:46;;;;;;;;;;;;;;;23.20;50.05;101085.94;4113376;28;19976;-57
2023/06/12 07:07:48;;;;;;;;;;;;;;;23.07;50.19;101069.97;4113183;28;19969;-57
2023/06/12 07:10:03;;;;;;;;;;;;;;;23.19;50.16;101097.66;4112869;28;19933;-54
2023/06/12 07:12:05;;;;;;;;;;;;;;;23.18;49.85;101087.88;4112715;28;19932;-57
2023/06/12 07:14:07;;;;;;;;;;;;;;;23.19;50.14;101092.28;4113137;28;19960;-57
2023/06/12 07:16:08;;;;;;;;;;;;;;;23.19;49.96;101086.91;4113265;28;19927;-57
2023/06/12 07:18:11;;;;;;;;;;;;;;;23.19;49.90;101089.59;4111970;28;19930;-57
2023/06/12 07:20:13;;;;;;;;;;;;;;;23.19;50.05;101094.97;4112577;28;19979;-57
2023/06/12 07:22:14;;;;;;;;;;;;;;;23.19;49.89;101095.81;4113172;28;19949;-56
2023/06/12 07:24:17;;;;;;;;;;;;;;;23.19;49.83;101094.97;4111998;28;20366;-57
2023/06/12 07:26:19;;;;;;;;;;;;;;;23.20;49.61;101091.31;4113368;28;19926;-56
2023/06/12 07:28:30;;;;;;;;;;;;;;;23.21;49.93;101093.84;4113329;28;19930;-56
2023/06/12 07:30:33;;;;;;;;;;;;;;;23.22;49.95;101098.25;4112076;28;20113;-57
2023/06/12 07:32:35;;;;;;;;;;;;;;;23.22;49.69;101094.69;4112889;28;19926;-58
2023/06/12 07:34:37;;;;;;;;;;;;;;;23.22;49.94;101097.38;4144329;28;20360;-57
2023/06/12 07:36:38;;;;;;;;;;;;;;;23.22;49.72;101097.38;4113345;28;20049;-57
2023/06/12 07:38:40;;;;;;;;;;;;;;;23.22;50.05;101102.75;4113216;28;19926;-57
2023/06/12 07:40:42;;;;;;;;;;;;;;;23.21;49.64;101090.28;4112164;28;20292;-57
2023/06/12 07:42:43;;;;;;;;;;;;;;;23.22;49.92;101098.25;4113015;28;19926;-57
2023/06/12 07:44:45;;;;;;;;;;;;;;;23.23;49.63;101097.25;4113011;28;20303;-57
2023/06/12 07:46:47;;;;;;;;;;;;;;;23.22;49.60;101092.88;4112983;28;20387;-57
2023/06/12 07:48:49;;;;;;;;;;;;;;;23.23;49.60;101077.63;4112513;28;19976;-57
2023/06/12 07:50:50;;;;;;;;;;;;;;;23.23;49.65;101088.34;4112208;28;20390;-57
2023/06/12 07:52:52;;;;;;;;;;;;;;;23.22;49.53;101092.88;4112989;28;19932;-57
2023/06/12 07:54:53;;;;;;;;;;;;;;;23.23;49.31;101089.22;4112991;28;20388;-57
2023/06/12 07:56:55;;;;;;;;;;;;;;;23.24;49.45;101087.38;4113025;28;19975;-58
2023/06/12 07:59:04;;;;;;;;;;;;;;;23.24;49.48;101090.06;4112858;28;19941;-57
2023/06/12 08:01:06;;;;;;;;;;;;;;;23.24;49.34;101098.94;4112029;28;19949;-59
2023/06/12 08:03:08;;;;;;;;;;;;;;;23.25;49.28;101092.59;4112726;28;19926;-57
2023/06/12 08:05:30;;;;;;;;;;;;;;;23.24;49.41;101080.16;4112948;28;20346;-57
2023/06/12 08:07:32;;;;;;;;;;;;;;;23.26;49.51;101080.06;4112806;28;19965;-57
2023/06/12 08:09:33;;;;;;;;;;;;;;;23.26;49.59;101080.88;4114576;28;19952;-57
2023/06/12 08:11:35;;;;;;;;;;;;;;;23.25;49.70;101086.41;4114672;28;20336;-57
2023/06/12 08:13:38;;;;;;;;;;;;;;;23.26;49.26;101088.09;4115886;28;20456;-56
2023/06/12 08:15:39;;;;;;;;;;;;;;;23.26;49.57;101086.25;4115722;28;19968;-57
2023/06/12 08:17:44;;;;;;;;;;;;;;;23.25;49.34;101087.22;4115160;28;19933;-56
2023/06/12 08:19:45;;;;;;;;;;;;;;;23.25;49.61;101087.22;4115505;28;19927;-58
2023/06/12 08:21:47;;;;;;;;;;;;;;;23.24;49.42;101082.84;4114638;28;19930;-57
2023/06/12 08:23:48;;;;;;;;;;;;;;;23.25;49.41;101075.66;4115355;28;20071;-57
2023/06/12 08:25:50;;;;;;;;;;;;;;;23.25;49.42;101075.66;4115680;28;20028;-57
2023/06/12 08:27:54;;;;;;;;;;;;;;;23.26;49.29;101069.31;4115318;28;19927;-57
2023/06/12 08:29:55;;;;;;;;;;;;;;;23.26;49.27;101074.69;4115239;28;19980;-57
2023/06/12 08:31:57;;;;;;;;;;;;;;;23.26;49.50;101067.47;4114050;28;19930;-57
2023/06/12 08:33:59;;;;;;;;;;;;;;;23.26;49.39;101062.09;4114188;28;19926;-57
2023/06/12 08:36:00;;;;;;;;;;;;;;;23.27;49.27;101054.94;4115152;28;19933;-57
2023/06/12 08:38:02;;;;;;;;;;;;;;;23.26;49.29;101059.41;4115207;28;19961;-56
2023/06/12 08:40:05;;;;;;;;;;;;;;;23.27;49.14;101057.59;4114202;28;19965;-57
2023/06/12 08:42:13;;;;;;;;;;;;;;;23.27;49.10;101054.94;4114284;28;19975;-57
2023/06/12 08:44:15;;;;;;;;;;;;;;;23.28;49.69;101056.59;4115293;28;19926;-56
2023/06/12 08:46:17;;;;;;;;;;;;;;;23.28;49.38;101051.22;4114679;28;19976;-57
2023/06/12 08:48:20;;;;;;;;;;;;;;;23.30;49.31;101051.97;4115188;28;19927;-56
2023/06/12 08:50:22;;;;;;;;;;;;;;;23.30;49.31;101049.28;4115043;28;19926;-58
2023/06/12 08:52:24;;;;;;;;;;;;;;;23.30;49.42;101049.28;4114806;28;19926;-56
2023/06/12 08:54:26;;;;;;;;;;;;;;;23.30;49.38;101049.28;4115038;28;19926;-56
2023/06/12 08:56:28;;;;;;;;;;;;;;;23.31;49.49;101053.66;4114921;28;20318;-57
2023/06/12 08:58:30;;;;;;;;;;;;;;;23.31;49.66;101053.66;4115279;28;20006;-56
2023/06/12 09:00:31;;;;;;;;;;;;;;;23.32;49.20;101054.50;4114094;28;19926;-57
2023/06/12 09:02:33;;;;;;;;;;;;;;;23.32;49.18;101051.81;4114740;28;20307;-56
2023/06/12 09:04:50;;;;;;;;;;;;;;;23.32;49.22;101047.31;4114955;28;19970;-57
2023/06/12 09:06:53;;;;;;;;;;;;;;;23.32;49.16;101050.00;4115007;28;19969;-57
2023/06/12 09:08:55;;;;;;;;;;;;;;;23.32;49.24;101050.00;4115001;28;19926;-57
2023/06/12 09:10:58;;;;;;;;;;;;;;;23.32;49.54;101052.69;4113911;28;19937;-57
2023/06/12 09:13:01;;;;;;;;;;;;;;;23.32;49.41;101049.13;4114915;28;19934;-57
2023/06/12 09:15:02;;;;;;;;;;;;;;;23.31;49.18;101051.00;4114461;28;19933;-57
2023/06/12 09:17:04;;;;;;;;;;;;;;;23.31;49.16;101053.66;4114875;28;20016;-57
2023/06/12 09:19:06;;;;;;;;;;;;;;;23.31;49.04;101042.94;4115127;28;19976;-57
2023/06/12 09:21:08;;;;;;;;;;;;;;;23.19;49.27;101033.25;4112406;28;19934;-56
2023/06/12 09:23:10;;;;;;;;;;;;;;;23.31;49.26;101050.13;4197919;28;19925;-57
2023/06/12 09:25:12;;;;;;;;;;;;;;;23.31;48.91;101045.63;4114906;28;19953;-57
2023/06/12 09:27:14;;;;;;;;;;;;;;;23.31;48.98;101047.44;4114702;28;19926;-57
2023/06/12 09:29:16;;;;;;;;;;;;;;;23.31;49.26;101051.00;4114430;28;19926;-57
2023/06/12 09:31:17;;;;;;;;;;;;;;;23.30;49.52;101043.91;4113862;28;19960;-56
2023/06/12 09:33:25;;;;;;;;;;;;;;;23.33;49.49;101045.47;4114600;28;19971;-56
2023/06/12 09:35:27;;;;;;;;;;;;;;;23.33;49.12;101046.34;4114579;28;20362;-57
2023/06/12 09:37:29;;;;;;;;;;;;;;;23.34;49.25;101044.50;4114683;28;20438;-57
2023/06/12 09:39:31;;;;;;;;;;;;;;;23.33;49.50;101043.66;4114671;28;20025;-57
2023/06/12 09:41:33;;;;;;;;;;;;;;;23.34;49.17;101036.47;4113510;28;19930;-57
2023/06/12 09:43:35;;;;;;;;;;;;;;;23.34;49.16;101039.13;4114343;28;19926;-56
2023/06/12 09:45:37;;;;;;;;;;;;;;;23.33;49.33;101041.00;4114374;28;19932;-56
2023/06/12 09:47:40;;;;;;;;;;;;;;;23.17;49.40;101022.63;4114353;28;20364;-56
2023/06/12 09:49:42;;;;;;;;;;;;;;;23.33;49.15;101050.84;4114617;28;20414;-57
2023/06/12 09:51:47;;;;;;;;;;;;;;;23.33;49.05;101048.16;4113445;28;19968;-57
2023/06/12 09:53:50;;;;;;;;;;;;;;;23.33;49.02;101057.09;4114315;28;20025;-57
2023/06/12 09:55:52;;;;;;;;;;;;;;;23.33;48.97;101054.41;4114267;28;19980;-57
2023/06/12 09:57:55;;;;;;;;;;;;;;;23.34;49.04;101057.94;4114042;28;19926;-57
2023/06/12 10:00:00;;;;;;;;;;;;;;;23.37;48.76;101055.00;4114254;28;19926;-57
2023/06/12 10:02:11;;;;;;;;;;;;;;;23.38;49.21;101060.22;4113109;28;20339;-57
2023/06/12 10:04:13;;;;;;;;;;;;;;;23.39;49.09;101061.94;4114289;28;20372;-56
2023/06/12 10:06:16;;;;;;;;;;;;;;;23.39;49.06;101064.63;4114338;28;19927;-58
2023/06/12 10:08:18;;;;;;;;;;;;;;;23.38;48.95;101057.53;4114187;28;19957;-56
2023/06/12 10:10:20;;;;;;;;;;;;;;;23.37;48.86;101061.19;4114084;28;19930;-57
2023/06/12 10:12:22;;;;;;;;;;;;;;;23.36;49.33;101056.81;4112813;28;19927;-57
2023/06/12 10:14:26;;;;;;;;;;;;;;;23.34;49.06;101053.41;4114097;28;20124;-56
2023/06/12 10:16:29;;;;;;;;;;;;;;;23.34;49.48;101053.41;4113818;28;19941;-57
2023/06/12 10:18:31;;;;;;;;;;;;;;;23.33;49.46;101050.84;4112521;28;19926;-57
2023/06/12 10:20:32;;;;;;;;;;;;;;;23.32;49.44;101049.13;4114178;28;19926;-58
2023/06/12 10:22:34;;;;;;;;;;;;;;;23.31;49.49;101050.13;4113276;28;20399;-57
2023/06/12 10:24:36;;;;;;;;;;;;;;;23.30;49.34;101033.19;4114020;28;19926;-57
2023/06/12 10:26:38;;;;;;;;;;;;;;;23.29;49.59;101037.72;4113671;28;19926;-58
2023/06/12 10:28:39;;;;;;;;;;;;;;;23.28;49.41;101033.31;4114036;28;20387;-57
2023/06/12 10:31:00;;;;;;;;;;;;;;;23.28;49.89;101044.06;4113462;28;19934;-57